createdAt,value
2022-09-07T00:02:02.751Z,101268.94
2022-09-07T00:04:30.489Z,101282.41
2022-09-07T00:06:58.230Z,101262.66
2022-09-07T00:09:25.949Z,101248.31
2022-09-07T00:11:53.694Z,101264.47
2022-09-07T00:14:21.515Z,101273.53
2022-09-07T00:16:51.028Z,101308.56
2022-09-07T00:19:18.781Z,101317.50
2022-09-07T00:21:46.431Z,101306.84
2022-09-07T00:24:14.221Z,101326.56
2022-09-07T00:26:41.877Z,101292.41
2022-09-07T00:29:09.607Z,101275.50
2022-09-07T00:31:37.610Z,101254.81
2022-09-07T00:34:06.783Z,101256.66
2022-09-07T00:36:34.517Z,101235.09
2022-09-07T00:39:02.656Z,101247.81
2022-09-07T00:41:30.649Z,101252.22
2022-09-07T00:43:59.475Z,101242.41
2022-09-07T00:46:28.279Z,101247.81
2022-09-07T00:48:58.180Z,101238.03
2022-09-07T00:51:30.463Z,101230.78
2022-09-07T00:54:01.697Z,101221.84
2022-09-07T00:56:31.668Z,101217.41
2022-09-07T00:58:59.996Z,101212.03
2022-09-07T01:01:28.232Z,101210.22
2022-09-07T01:03:58.548Z,101217.41
2022-09-07T01:06:28.912Z,101227.34
2022-09-07T01:08:57.659Z,101226.47
2022-09-07T01:11:25.327Z,101232.72
2022-09-07T01:13:54.061Z,101238.97
2022-09-07T01:16:42.794Z,101227.34
2022-09-07T01:19:19.084Z,101222.94
2022-09-07T01:21:59.571Z,101226.47
2022-09-07T01:24:36.516Z,101234.47
2022-09-07T01:27:23.159Z,101237.25
2022-09-07T01:29:56.712Z,101250.72
2022-09-07T01:32:30.665Z,101248.03
2022-09-07T01:34:58.800Z,101257.94
2022-09-07T01:37:30.900Z,101269.56
2022-09-07T01:40:04.110Z,101269.69
2022-09-07T01:42:33.519Z,101267.84
2022-09-07T01:45:03.375Z,101267.00
2022-09-07T01:47:33.712Z,101261.59
2022-09-07T01:50:06.198Z,101252.69
2022-09-07T01:52:36.885Z,101246.44
2022-09-07T01:55:07.953Z,101245.53
2022-09-07T01:57:39.770Z,101244.59
2022-09-07T02:00:10.351Z,101243.75
2022-09-07T02:02:41.191Z,101242.84
2022-09-07T02:05:11.424Z,101241.13
2022-09-07T02:07:43.507Z,101238.44
2022-09-07T02:10:15.173Z,101243.84
2022-09-07T02:12:45.816Z,101233.91
2022-09-07T02:15:17.816Z,101232.19
2022-09-07T02:17:47.607Z,101234.91
2022-09-07T02:20:20.770Z,101232.19
2022-09-07T02:22:50.961Z,101226.81
2022-09-07T02:25:21.658Z,101228.66
2022-09-07T02:27:51.501Z,101225.97
2022-09-07T02:30:20.623Z,101221.44
2022-09-07T02:32:48.317Z,101221.56
2022-09-07T02:35:16.243Z,101208.94
2022-09-07T02:37:45.217Z,101207.13
2022-09-07T02:40:13.181Z,101208.09
2022-09-07T02:42:40.989Z,101203.56
2022-09-07T02:45:10.645Z,101209.94
2022-09-07T02:47:45.226Z,101209.03
2022-09-07T02:50:23.765Z,101205.41
2022-09-07T02:52:55.135Z,101208.19
2022-09-07T02:55:28.053Z,101195.56
2022-09-07T02:58:02.812Z,101200.97
2022-09-07T03:00:33.016Z,101195.56
2022-09-07T03:03:09.397Z,101193.78
2022-09-07T03:05:41.065Z,101187.63
2022-09-07T03:08:12.780Z,101187.50
2022-09-07T03:10:40.667Z,101180.41
2022-09-07T03:13:08.354Z,101172.31
2022-09-07T03:15:36.086Z,101175.00
2022-09-07T03:18:05.219Z,101185.78
2022-09-07T03:20:32.939Z,101185.91
2022-09-07T03:23:00.655Z,101187.63
2022-09-07T03:25:28.344Z,101176.97
2022-09-07T03:27:56.282Z,101176.00
2022-09-07T03:30:24.088Z,101164.38
2022-09-07T03:32:52.096Z,101166.22
2022-09-07T03:35:21.387Z,101160.81
2022-09-07T03:37:49.183Z,101166.22
2022-09-07T03:40:16.947Z,101157.25
2022-09-07T03:42:45.096Z,101168.00
2022-09-07T03:45:12.853Z,101166.22
2022-09-07T03:47:40.577Z,101170.69
2022-09-07T03:50:08.756Z,101173.41
2022-09-07T03:52:38.254Z,101180.63
2022-09-07T03:55:06.339Z,101180.63
2022-09-07T03:57:34.058Z,101177.94
2022-09-07T04:00:02.569Z,101180.63
2022-09-07T04:02:30.443Z,101184.28
2022-09-07T04:04:58.152Z,101184.28
2022-09-07T04:07:27.298Z,101185.16
2022-09-07T04:09:56.452Z,101170.81
2022-09-07T04:12:26.103Z,101170.94
2022-09-07T04:14:53.824Z,101173.53
2022-09-07T04:17:21.585Z,101163.72
2022-09-07T04:19:49.281Z,101151.25
2022-09-07T04:22:16.994Z,101152.97
2022-09-07T04:24:44.735Z,101150.28
2022-09-07T04:27:13.731Z,101147.56
2022-09-07T04:29:41.424Z,101149.28
2022-09-07T04:32:11.426Z,101151.13
2022-09-07T04:34:42.843Z,101159.31
2022-09-07T04:37:10.550Z,101161.03
2022-09-07T04:39:38.982Z,101161.03
2022-09-07T04:42:06.838Z,101161.03
2022-09-07T04:44:36.061Z,101169.13
2022-09-07T04:47:03.711Z,101168.13
2022-09-07T04:49:31.458Z,101165.44
2022-09-07T04:51:59.131Z,101155.53
2022-09-07T04:54:27.535Z,101153.69
2022-09-07T04:56:55.227Z,101154.66
2022-09-07T04:59:22.959Z,101147.44
2022-09-07T05:01:52.045Z,101137.53
2022-09-07T05:04:19.808Z,101134.84
2022-09-07T05:06:49.912Z,101139.38
2022-09-07T05:09:17.661Z,101152.84
2022-09-07T05:11:45.403Z,101160.06
2022-09-07T05:14:13.241Z,101168.13
2022-09-07T05:16:41.026Z,101173.53
2022-09-07T05:19:13.130Z,101168.13
2022-09-07T05:21:40.999Z,101165.44
2022-09-07T05:24:08.732Z,101166.41
2022-09-07T05:26:38.397Z,101171.81
2022-09-07T05:31:55.348Z,101172.66
2022-09-07T05:36:55.517Z,101178.16
2022-09-07T05:39:23.299Z,101179.88
2022-09-07T05:41:51.062Z,101186.25
2022-09-07T05:47:06.831Z,101191.63
2022-09-07T05:49:35.915Z,101197.03
2022-09-07T05:52:03.820Z,101200.56
2022-09-07T05:54:31.584Z,101202.41
2022-09-07T05:56:59.307Z,101197.03
2022-09-07T05:59:27.105Z,101192.50
2022-09-07T06:01:54.925Z,101191.63
2022-09-07T06:04:22.770Z,101195.28
2022-09-07T06:07:20.202Z,101200.56
2022-09-07T06:12:28.083Z,101197.63
2022-09-07T06:14:55.789Z,101202.50
2022-09-07T06:17:23.602Z,101205.38
2022-09-07T06:19:51.353Z,101206.25
2022-09-07T06:22:20.443Z,101198.41
2022-09-07T06:24:48.216Z,101198.59
2022-09-07T06:27:15.888Z,101205.19
2022-09-07T06:29:43.618Z,101204.19
2022-09-07T06:34:59.161Z,101201.63
2022-09-07T06:37:28.256Z,101211.63
2022-09-07T06:39:56.134Z,101203.69
2022-09-07T06:42:23.908Z,101220.69
2022-09-07T06:44:51.654Z,101217.13
2022-09-07T06:47:19.452Z,101219.81
2022-09-07T06:49:47.168Z,101215.41
2022-09-07T06:52:14.900Z,101223.50
2022-09-07T06:54:59.610Z,101217.34
2022-09-07T06:57:28.003Z,101219.31
2022-09-07T06:59:55.680Z,101207.88
2022-09-07T07:02:23.341Z,101223.06
2022-09-07T07:04:51.201Z,101220.47
2022-09-07T07:07:18.937Z,101224.13
2022-09-07T07:09:50.833Z,101227.78
2022-09-07T07:14:45.384Z,101234.38
2022-09-07T07:17:13.220Z,101228.13
2022-09-07T07:19:40.940Z,101228.97
2022-09-07T07:22:23.879Z,101222.84
2022-09-07T07:24:57.773Z,101225.53
2022-09-07T07:27:25.501Z,101227.56
2022-09-07T07:29:53.917Z,101226.81
2022-09-07T07:32:21.695Z,101230.38
2022-09-07T07:34:51.577Z,101228.53
2022-09-07T07:37:28.034Z,101234.03
2022-09-07T07:42:45.108Z,101233.19
2022-09-07T07:48:02.032Z,101241.47
2022-09-07T07:50:31.849Z,101246.84
2022-09-07T07:55:49.706Z,101238.13
2022-09-07T07:58:17.799Z,101242.66
2022-09-07T08:01:01.010Z,101243.63
2022-09-07T08:03:28.921Z,101247.06
2022-09-07T08:05:56.851Z,101250.59
2022-09-07T08:08:24.749Z,101260.50
2022-09-07T08:10:53.767Z,101254.25
2022-09-07T08:13:21.738Z,101261.34
2022-09-07T08:15:49.537Z,101262.22
2022-09-07T08:18:17.798Z,101259.53
2022-09-07T08:20:48.492Z,101270.28
2022-09-07T08:23:16.343Z,101272.13
2022-09-07T08:26:07.982Z,101275.00
2022-09-07T08:28:38.454Z,101272.56
2022-09-07T08:31:06.350Z,101276.19
2022-09-07T08:33:35.444Z,101277.09
2022-09-07T08:36:04.109Z,101279.00
2022-09-07T08:38:32.795Z,101267.38
2022-09-07T08:41:01.338Z,101276.44
2022-09-07T08:43:39.528Z,101274.78
2022-09-07T08:46:15.110Z,101277.50
2022-09-07T08:48:43.819Z,101279.19
2022-09-07T08:51:14.068Z,101279.31
2022-09-07T08:53:44.813Z,101282.88
2022-09-07T08:56:17.132Z,101280.94
2022-09-07T08:58:49.161Z,101277.50
2022-09-07T09:01:35.704Z,101283.00
2022-09-07T09:04:21.224Z,101286.41
2022-09-07T09:07:01.585Z,101286.41
2022-09-07T09:09:34.257Z,101286.34
2022-09-07T09:12:08.821Z,101288.03
2022-09-07T09:14:43.842Z,101285.25
2022-09-07T09:17:19.465Z,101285.03
2022-09-07T09:19:52.763Z,101283.97
2022-09-07T09:22:21.717Z,101282.88
2022-09-07T09:24:50.442Z,101291.72
2022-09-07T09:27:18.143Z,101290.63
2022-09-07T09:29:45.863Z,101293.22
2022-09-07T09:32:34.630Z,101292.13
2022-09-07T09:35:04.012Z,101291.06
2022-09-07T09:37:35.075Z,101288.06
2022-09-07T09:40:03.317Z,101291.53
2022-09-07T09:42:32.861Z,101293.88
2022-09-07T09:45:03.950Z,101294.66
2022-09-07T09:47:35.997Z,101292.72
2022-09-07T09:50:06.314Z,101293.56
2022-09-07T09:52:44.990Z,101288.94
2022-09-07T09:55:40.894Z,101296.91
2022-09-07T10:01:24.242Z,101287.78
2022-09-07T10:06:26.667Z,101273.22
2022-09-07T10:08:57.325Z,101280.34
2022-09-07T10:14:29.875Z,101273.00
2022-09-07T10:16:58.218Z,101272.91
2022-09-07T10:19:33.811Z,101264.72
2022-09-07T10:22:02.763Z,101269.13
2022-09-07T10:24:35.654Z,101269.97
2022-09-07T10:27:19.592Z,101276.13
2022-09-07T10:29:47.400Z,101271.63
2022-09-07T10:32:21.138Z,101268.94
2022-09-07T10:34:56.051Z,101268.94
2022-09-07T10:37:30.912Z,101267.88
2022-09-07T10:40:03.713Z,101268.72
2022-09-07T10:42:33.965Z,101268.72
2022-09-07T10:45:05.409Z,101265.06
2022-09-07T10:47:39.087Z,101265.91
2022-09-07T10:50:22.534Z,101256.00
2022-09-07T10:52:56.848Z,101263.13
2022-09-07T10:55:29.942Z,101257.75
2022-09-07T10:58:03.594Z,101263.00
2022-09-07T11:00:33.974Z,101260.31
2022-09-07T11:03:26.144Z,101256.66
2022-09-07T11:06:02.115Z,101265.59
2022-09-07T11:09:15.747Z,101256.56
2022-09-07T11:14:17.486Z,101263.53
2022-09-07T11:16:50.882Z,101262.69
2022-09-07T11:19:37.265Z,101265.38
2022-09-07T11:22:17.043Z,101269.78
2022-09-07T11:24:47.483Z,101267.09
2022-09-07T11:27:19.883Z,101261.59
2022-09-07T11:29:50.312Z,101260.75
2022-09-07T11:32:20.203Z,101265.16
2022-09-07T11:34:52.170Z,101263.31
2022-09-07T11:37:24.368Z,101258.78
2022-09-07T11:39:54.306Z,101259.66
2022-09-07T11:45:15.174Z,101250.63
2022-09-07T11:47:45.010Z,101246.09
2022-09-07T11:50:16.660Z,101250.50
2022-09-07T11:52:53.552Z,101250.50
2022-09-07T11:55:25.622Z,101254.91
2022-09-07T11:58:01.215Z,101249.53
2022-09-07T12:00:33.201Z,101241.44
2022-09-07T12:03:05.574Z,101245.00
2022-09-07T12:05:42.535Z,101238.66
2022-09-07T12:08:20.251Z,101246.75
2022-09-07T12:10:54.855Z,101242.22
2022-09-07T12:13:32.305Z,101246.63
2022-09-07T12:16:03.030Z,101245.63
2022-09-07T12:18:44.608Z,101246.50
2022-09-07T12:21:27.184Z,101239.31
2022-09-07T12:23:56.277Z,101235.63
2022-09-07T12:26:50.817Z,101226.69
2022-09-07T12:29:25.713Z,101233.66
2022-09-07T12:31:58.633Z,101226.44
2022-09-07T12:34:54.079Z,101228.28
2022-09-07T12:37:36.628Z,101232.72
2022-09-07T12:40:23.125Z,101232.72
2022-09-07T12:43:12.209Z,101227.34
2022-09-07T12:45:58.098Z,101219.25
2022-09-07T12:48:33.954Z,101227.34
2022-09-07T12:51:06.212Z,101226.34
2022-09-07T12:53:38.194Z,101213.75
2022-09-07T12:56:19.697Z,101210.06
2022-09-07T12:58:54.165Z,101204.69
2022-09-07T13:01:28.717Z,101217.19
2022-09-07T13:04:17.276Z,101201.97
2022-09-07T13:07:02.625Z,101198.34
2022-09-07T13:09:32.308Z,101198.34
2022-09-07T13:12:00.903Z,101193.81
2022-09-07T13:14:30.483Z,101180.44
2022-09-07T13:17:31.149Z,101185.72
2022-09-07T13:20:06.636Z,101180.34
2022-09-07T13:22:53.535Z,101180.34
2022-09-07T13:25:38.931Z,101181.19
2022-09-07T13:28:14.905Z,101181.19
2022-09-07T13:30:50.890Z,101173.97
2022-09-07T13:33:37.271Z,101176.66
2022-09-07T13:36:06.299Z,101175.81
2022-09-07T13:38:36.413Z,101171.28
2022-09-07T13:41:07.328Z,101176.66
2022-09-07T13:43:35.833Z,101160.50
2022-09-07T13:46:09.091Z,101165.03
2022-09-07T13:48:37.998Z,101170.28
2022-09-07T13:51:09.680Z,101160.50
2022-09-07T13:53:46.520Z,101159.66
2022-09-07T13:56:17.816Z,101158.66
2022-09-07T13:58:48.382Z,101158.53
2022-09-07T14:01:19.709Z,101159.44
2022-09-07T14:03:55.958Z,101156.72
2022-09-07T14:06:31.477Z,101157.59
2022-09-07T14:09:01.025Z,101162.13
2022-09-07T14:11:29.625Z,101153.16
2022-09-07T14:14:10.570Z,101151.44
2022-09-07T14:16:39.921Z,101145.19
2022-09-07T14:19:11.258Z,101148.00
2022-09-07T14:21:39.182Z,101143.47
2022-09-07T14:24:07.525Z,101142.50
2022-09-07T14:26:35.430Z,101140.66
2022-09-07T14:29:03.135Z,101148.75
2022-09-07T14:31:32.351Z,101140.78
2022-09-07T14:34:01.914Z,101144.34
2022-09-07T14:36:43.929Z,101137.13
2022-09-07T14:39:25.829Z,101138.94
2022-09-07T14:42:03.768Z,101134.41
2022-09-07T14:44:33.565Z,101138.94
2022-09-07T14:47:03.025Z,101137.97
2022-09-07T14:49:32.142Z,101132.72
2022-09-07T14:52:00.785Z,101138.09
2022-09-07T14:54:30.834Z,101125.63
2022-09-07T14:57:01.092Z,101133.56
2022-09-07T14:59:33.972Z,101131.72
2022-09-07T15:02:22.069Z,101125.63
2022-09-07T15:05:10.918Z,101128.19
2022-09-07T15:07:39.252Z,101127.31
2022-09-07T15:10:16.605Z,101125.63
2022-09-07T15:12:44.482Z,101121.09
2022-09-07T15:15:21.839Z,101126.47
2022-09-07T15:17:49.815Z,101124.72
2022-09-07T15:20:35.793Z,101123.88
2022-09-07T15:23:04.932Z,101124.72
2022-09-07T15:25:33.015Z,101122.91
2022-09-07T15:28:00.935Z,101124.72
2022-09-07T15:30:28.710Z,101124.72
2022-09-07T15:32:57.337Z,101121.94
2022-09-07T15:35:25.394Z,101120.81
2022-09-07T15:38:02.875Z,101120.81
2022-09-07T15:40:37.445Z,101113.72
2022-09-07T15:43:16.492Z,101114.72
2022-09-07T15:45:48.113Z,101114.72
2022-09-07T15:48:25.251Z,101113.00
2022-09-07T15:51:00.985Z,101113.84
2022-09-07T15:56:20.317Z,101110.31
2022-09-07T15:58:52.475Z,101107.63
2022-09-07T16:04:08.219Z,101102.22
2022-09-07T16:06:36.020Z,101113.00
2022-09-07T16:09:06.131Z,101113.94
2022-09-07T16:11:35.187Z,101109.44
2022-09-07T16:14:03.813Z,101096.94
2022-09-07T16:19:21.136Z,101092.41
2022-09-07T16:21:49.003Z,101087.00
2022-09-07T16:24:18.392Z,101085.06
2022-09-07T16:26:46.132Z,101078.72
2022-09-07T16:29:13.852Z,101081.31
2022-09-07T16:32:44.060Z,101073.94
2022-09-07T16:34:30.070Z,101077.50
2022-09-07T16:36:57.959Z,101071.25
2022-09-07T16:39:27.108Z,101079.34
2022-09-07T16:41:54.976Z,101070.41
2022-09-07T16:44:22.950Z,101078.47
2022-09-07T16:46:50.802Z,101076.78
2022-09-07T16:49:19.679Z,101079.47
2022-09-07T16:51:47.438Z,101083.13
2022-09-07T16:54:15.846Z,101073.44
2022-09-07T16:56:44.925Z,101078.94
2022-09-07T16:59:16.102Z,101079.06
2022-09-07T17:01:44.000Z,101081.88
2022-09-07T17:04:11.960Z,101084.56
2022-09-07T17:06:40.265Z,101086.38
2022-09-07T17:09:08.192Z,101084.66
2022-09-07T17:11:36.983Z,101081.25
2022-09-07T17:14:06.776Z,101083.09
2022-09-07T17:16:36.206Z,101076.94
2022-09-07T17:21:53.608Z,101074.69
2022-09-07T17:24:21.687Z,101081.06
2022-09-07T17:26:49.426Z,101081.28
2022-09-07T17:29:18.613Z,101086.94
2022-09-07T17:34:33.969Z,101081.84
2022-09-07T17:37:01.660Z,101074.88
2022-09-07T17:39:29.571Z,101074.88
2022-09-07T17:41:57.811Z,101083.94
2022-09-07T17:44:30.692Z,101081.44
2022-09-07T17:46:59.864Z,101084.34
2022-09-07T17:49:29.376Z,101080.91
2022-09-07T17:51:58.509Z,101085.31
2022-09-07T17:54:26.215Z,101077.34
2022-09-07T17:56:54.158Z,101078.31
2022-09-07T18:02:13.538Z,101069.75
2022-09-07T18:04:41.358Z,101060.06
2022-09-07T18:07:09.101Z,101061.03
2022-09-07T18:09:36.812Z,101049.50
2022-09-07T18:12:04.845Z,101054.88
2022-09-07T18:14:32.570Z,101043.47
2022-09-07T18:17:00.330Z,101048.00
2022-09-07T18:19:29.488Z,101054.38
2022-09-07T18:21:57.191Z,101052.75
2022-09-07T18:24:25.469Z,101053.00
2022-09-07T18:26:54.268Z,101060.31
2022-09-07T18:29:33.477Z,101063.13
2022-09-07T18:32:03.103Z,101063.34
2022-09-07T18:34:32.349Z,101067.97
2022-09-07T18:37:00.125Z,101068.94
2022-09-07T18:39:28.011Z,101067.22
2022-09-07T18:41:56.242Z,101064.63
2022-09-07T18:47:21.083Z,101066.72
2022-09-07T18:49:51.386Z,101066.72
2022-09-07T18:55:08.528Z,101073.59
2022-09-07T18:57:36.700Z,101075.19
2022-09-07T19:00:05.128Z,101070.44
2022-09-07T19:02:33.517Z,101079.16
2022-09-07T19:07:50.385Z,101069.75
2022-09-07T19:10:18.421Z,101065.13
2022-09-07T19:12:46.532Z,101065.00
2022-09-07T19:15:14.577Z,101062.22
2022-09-07T19:17:42.311Z,101063.09
2022-09-07T19:20:11.837Z,101062.00
2022-09-07T19:22:39.731Z,101060.06
2022-09-07T19:25:07.696Z,101060.06
2022-09-07T19:27:35.618Z,101066.19
2022-09-07T19:30:03.386Z,101069.75
2022-09-07T19:32:31.105Z,101065.22
2022-09-07T19:34:58.844Z,101063.38
2022-09-07T19:37:29.880Z,101063.25
2022-09-07T19:39:58.129Z,101062.31
2022-09-07T19:42:26.556Z,101067.56
2022-09-07T19:44:54.943Z,101070.25
2022-09-07T19:47:23.225Z,101070.13
2022-09-07T19:49:52.247Z,101070.13
2022-09-07T19:52:19.947Z,101064.75
2022-09-07T19:54:49.052Z,101073.72
2022-09-07T19:57:16.706Z,101071.88
2022-09-07T19:59:45.634Z,101070.88
2022-09-07T20:02:13.405Z,101075.28
2022-09-07T20:04:41.116Z,101067.22
2022-09-07T20:07:08.814Z,101064.53
2022-09-07T20:09:36.872Z,101060.88
2022-09-07T20:12:08.052Z,101053.66
2022-09-07T20:14:35.778Z,101058.94
2022-09-07T20:17:03.723Z,101050.66
2022-09-07T20:19:31.517Z,101055.06
2022-09-07T20:21:59.184Z,101044.28
2022-09-07T20:24:26.879Z,101037.06
2022-09-07T20:26:54.630Z,101036.97
2022-09-07T20:29:28.497Z,101036.09
2022-09-07T20:31:57.180Z,101037.81
2022-09-07T20:34:24.897Z,101026.19
2022-09-07T20:36:52.980Z,101027.91
2022-09-07T20:39:21.302Z,101021.66
2022-09-07T20:41:49.377Z,101021.66
2022-09-07T20:44:17.501Z,101014.44
2022-09-07T20:46:46.683Z,101018.84
2022-09-07T20:49:14.439Z,101017.13
2022-09-07T20:51:42.246Z,101016.28
2022-09-07T20:54:10.117Z,101011.75
2022-09-07T20:56:37.841Z,101018.97
2022-09-07T20:59:05.526Z,101009.06
2022-09-07T21:01:34.978Z,101007.22
2022-09-07T21:04:06.202Z,101008.09
2022-09-07T21:06:34.061Z,101008.22
2022-09-07T21:09:02.026Z,101001.84
2022-09-07T21:11:33.821Z,101013.47
2022-09-07T21:14:02.610Z,101003.69
2022-09-07T21:16:30.306Z,101007.22
2022-09-07T21:18:58.888Z,101009.91
2022-09-07T21:21:28.326Z,101002.81
2022-09-07T21:23:56.760Z,101007.22
2022-09-07T21:26:24.472Z,101001.84
2022-09-07T21:28:56.113Z,101005.63
2022-09-07T21:31:23.926Z,101002.81
2022-09-07T21:33:54.402Z,100996.59
2022-09-07T21:36:22.168Z,100995.69
2022-09-07T21:38:51.276Z,100990.31
2022-09-07T21:41:19.769Z,100988.50
2022-09-07T21:43:47.573Z,100994.84
2022-09-07T21:46:17.249Z,100990.31
2022-09-07T21:48:45.715Z,100994.84
2022-09-07T21:51:13.966Z,100988.50
2022-09-07T21:53:41.882Z,100991.28
2022-09-07T21:56:12.794Z,100992.16
2022-09-07T21:58:40.871Z,100995.81
2022-09-07T22:01:12.494Z,100992.16
2022-09-07T22:03:40.725Z,100991.28
2022-09-07T22:06:08.695Z,100991.28
2022-09-07T22:08:36.752Z,100979.66
2022-09-07T22:11:05.418Z,100986.75
2022-09-07T22:13:34.941Z,100983.22
2022-09-07T22:16:03.482Z,100979.66
2022-09-07T22:18:31.254Z,100988.59
2022-09-07T22:21:02.472Z,100990.44
2022-09-07T22:23:30.906Z,100983.34
2022-09-07T22:25:58.608Z,100980.53
2022-09-07T22:28:26.557Z,100982.38
2022-09-07T22:30:55.766Z,100982.38
2022-09-07T22:33:23.658Z,100987.75
2022-09-07T22:35:51.274Z,100986.03
2022-09-07T22:38:19.013Z,100977.97
2022-09-07T22:40:46.658Z,100976.13
2022-09-07T22:43:14.339Z,100969.88
2022-09-07T22:45:41.976Z,100966.34
2022-09-07T22:48:11.082Z,100965.50
2022-09-07T22:50:38.826Z,100960.97
2022-09-07T22:53:06.531Z,100953.81
2022-09-07T22:55:38.945Z,100957.41
2022-09-07T22:58:06.634Z,100952.03
2022-09-07T23:00:36.337Z,100958.25
2022-09-07T23:03:04.989Z,100959.13
2022-09-07T23:05:38.101Z,100955.56
2022-09-07T23:08:06.090Z,100958.25
2022-09-07T23:10:34.863Z,100952.97
2022-09-07T23:13:02.534Z,100946.63
2022-09-07T23:15:30.404Z,100942.22
2022-09-07T23:17:58.041Z,100939.50
2022-09-07T23:20:25.844Z,100935.88
2022-09-07T23:22:54.824Z,100936.81
2022-09-07T23:25:22.680Z,100926.06
2022-09-07T23:27:50.322Z,100917.97
2022-09-07T23:30:17.999Z,100913.56
2022-09-07T23:32:45.661Z,100916.28
2022-09-07T23:35:16.586Z,100921.66
2022-09-07T23:37:44.598Z,100918.97
2022-09-07T23:40:13.716Z,100916.28
2022-09-07T23:42:41.524Z,100913.56
2022-09-07T23:45:09.791Z,100914.44
2022-09-07T23:47:37.516Z,100912.69
2022-09-07T23:50:05.608Z,100908.19
2022-09-07T23:52:33.341Z,100908.19
2022-09-07T23:55:01.007Z,100909.06
2022-09-07T23:57:30.100Z,100909.91
2022-09-07T23:59:57.809Z,100905.50
